Time;durP1;ratioP1;P1;durP2;ratioP2;P2;SDS_P1;SDS_P2;PMS_P1;PMS_P2;Temp;Humidity;BMP_temperature;BMP_pressure;BME280_temperature;BME280_humidity;BME280_pressure;Samples;Min_cycle;Max_cycle;Signal;HPM_P1;HPM_P2
2022/07/31 00:00:09;;;;;;;6.68;3.15;;;;;;;;;;5032416;28;20037;-67
2022/07/31 00:02:34;;;;;;;5.63;3.05;;;;;;;;;;5032081;28;20028;-66
2022/07/31 00:04:59;;;;;;;9.25;3.28;;;;;;;;;;5031984;28;20041;-66
2022/07/31 00:07:25;;;;;;;7.93;3.22;;;;;;;;;;5032473;28;20025;-67
2022/07/31 00:09:50;;;;;;;10.48;3.35;;;;;;;;;;5032278;28;20034;-67
2022/07/31 00:12:16;;;;;;;6.72;3.22;;;;;;;;;;5032197;28;20025;-67
2022/07/31 00:14:41;;;;;;;6.40;3.03;;;;;;;;;;5030542;28;20560;-67
2022/07/31 00:17:06;;;;;;;9.15;3.20;;;;;;;;;;5032468;28;20052;-67
2022/07/31 00:19:32;;;;;;;6.60;3.42;;;;;;;;;;5032035;28;20440;-67
2022/07/31 00:21:57;;;;;;;8.15;3.40;;;;;;;;;;5032155;28;20541;-66
2022/07/31 00:24:22;;;;;;;6.53;3.80;;;;;;;;;;5031951;28;20473;-67
2022/07/31 00:26:48;;;;;;;9.40;3.80;;;;;;;;;;5032151;28;20121;-67
2022/07/31 00:29:13;;;;;;;8.90;3.70;;;;;;;;;;5031955;28;20067;-66
2022/07/31 00:31:38;;;;;;;7.13;3.50;;;;;;;;;;5032330;28;20384;-66
2022/07/31 00:34:03;;;;;;;7.57;3.42;;;;;;;;;;5031870;28;20025;-67
2022/07/31 00:36:29;;;;;;;10.05;4.05;;;;;;;;;;5031917;28;20028;-67
2022/07/31 00:38:54;;;;;;;5.15;3.05;;;;;;;;;;5031641;28;20462;-67
2022/07/31 00:41:19;;;;;;;5.68;3.58;;;;;;;;;;5032092;28;20044;-67
2022/07/31 00:43:44;;;;;;;5.80;3.50;;;;;;;;;;5031658;28;20111;-67
2022/07/31 00:46:10;;;;;;;5.95;3.65;;;;;;;;;;5031612;28;20099;-67
2022/07/31 00:48:35;;;;;;;6.47;3.70;;;;;;;;;;5031231;28;20029;-67
2022/07/31 00:51:00;;;;;;;7.15;3.90;;;;;;;;;;5030460;28;20021;-67
2022/07/31 00:53:26;;;;;;;8.85;3.88;;;;;;;;;;5030699;28;20560;-67
2022/07/31 00:55:51;;;;;;;5.45;3.17;;;;;;;;;;5031407;28;20022;-67
2022/07/31 00:58:16;;;;;;;7.35;3.55;;;;;;;;;;5031443;28;20041;-67
2022/07/31 01:00:41;;;;;;;6.53;3.78;;;;;;;;;;5031932;28;20022;-67
2022/07/31 01:03:07;;;;;;;5.43;3.70;;;;;;;;;;5031279;28;20021;-67
2022/07/31 01:05:32;;;;;;;5.00;3.35;;;;;;;;;;5031768;28;20025;-67
2022/07/31 01:07:57;;;;;;;8.60;4.07;;;;;;;;;;5031130;28;20014;-67
2022/07/31 01:10:34;;;;;;;9.70;4.20;;;;;;;;;;5031625;28;20022;-67
2022/07/31 01:13:02;;;;;;;8.60;4.00;;;;;;;;;;5030850;28;20021;-66
2022/07/31 01:15:29;;;;;;;8.52;4.13;;;;;;;;;;5031243;28;20470;-66
2022/07/31 01:17:55;;;;;;;7.28;3.88;;;;;;;;;;5031395;28;20021;-66
2022/07/31 01:20:20;;;;;;;6.53;4.60;;;;;;;;;;5030846;28;20029;-66
2022/07/31 01:22:45;;;;;;;9.60;4.40;;;;;;;;;;5031416;28;20091;-66
2022/07/31 01:25:16;;;;;;;10.10;4.63;;;;;;;;;;5029479;28;20504;-66
2022/07/31 01:28:00;;;;;;;7.05;4.47;;;;;;;;;;5031312;28;20032;-66
2022/07/31 01:30:30;;;;;;;6.75;4.07;;;;;;;;;;5031124;28;20107;-66
2022/07/31 01:32:56;;;;;;;6.93;3.58;;;;;;;;;;5031226;28;20184;-66
2022/07/31 01:35:25;;;;;;;7.22;3.40;;;;;;;;;;5030908;28;20029;-67
2022/07/31 01:37:53;;;;;;;5.75;3.30;;;;;;;;;;5031272;28;20040;-66
2022/07/31 01:40:21;;;;;;;7.32;3.50;;;;;;;;;;5030630;28;20116;-66
2022/07/31 01:42:54;;;;;;;6.88;3.58;;;;;;;;;;5031239;28;20018;-66
2022/07/31 01:45:19;;;;;;;6.60;3.50;;;;;;;;;;5030858;28;20076;-66
2022/07/31 01:47:46;;;;;;;8.25;3.70;;;;;;;;;;5031162;28;20052;-66
2022/07/31 01:50:11;;;;;;;15.57;4.32;;;;;;;;;;5030873;28;20022;-67
2022/07/31 01:52:38;;;;;;;8.23;3.75;;;;;;;;;;5030678;28;20562;-67
2022/07/31 01:55:04;;;;;;;6.53;3.63;;;;;;;;;;5030801;28;20028;-66
2022/07/31 01:57:31;;;;;;;6.32;3.65;;;;;;;;;;5030793;28;20022;-66
2022/07/31 01:59:58;;;;;;;5.85;3.50;;;;;;;;;;5030368;28;20041;-66
2022/07/31 02:02:24;;;;;;;7.00;3.60;;;;;;;;;;5032337;28;20040;-67
2022/07/31 02:04:50;;;;;;;7.35;3.78;;;;;;;;;;5034496;28;20025;-66
2022/07/31 02:07:15;;;;;;;9.50;3.55;;;;;;;;;;5034912;28;20381;-66
2022/07/31 02:09:43;;;;;;;6.57;3.17;;;;;;;;;;5034303;28;20103;-66
2022/07/31 02:12:09;;;;;;;4.78;3.38;;;;;;;;;;5034547;28;20107;-66
2022/07/31 02:14:34;;;;;;;7.80;3.85;;;;;;;;;;5034500;28;20553;-66
2022/07/31 02:17:00;;;;;;;5.20;3.60;;;;;;;;;;5034364;28;20113;-66
2022/07/31 02:19:27;;;;;;;8.93;3.28;;;;;;;;;;5034447;28;20374;-66
2022/07/31 02:21:52;;;;;;;6.25;3.72;;;;;;;;;;5034319;28;20025;-66
2022/07/31 02:24:17;;;;;;;6.40;3.35;;;;;;;;;;5033982;28;20026;-66
2022/07/31 02:26:43;;;;;;;5.60;3.60;;;;;;;;;;5034501;28;20017;-66
2022/07/31 02:29:09;;;;;;;8.20;3.92;;;;;;;;;;5034034;28;20036;-66
2022/07/31 02:31:35;;;;;;;9.35;3.88;;;;;;;;;;5034052;28;20398;-66
2022/07/31 02:34:00;;;;;;;6.25;3.88;;;;;;;;;;5034140;28;20029;-67
2022/07/31 02:36:27;;;;;;;8.57;3.90;;;;;;;;;;5033887;28;20026;-67
2022/07/31 02:38:53;;;;;;;7.50;3.88;;;;;;;;;;5034046;28;20087;-67
2022/07/31 02:41:20;;;;;;;10.10;4.60;;;;;;;;;;5034223;28;20548;-66
2022/07/31 02:43:45;;;;;;;9.75;4.13;;;;;;;;;;5033137;28;20516;-67
2022/07/31 02:46:11;;;;;;;7.55;4.57;;;;;;;;;;5033900;28;20057;-67
2022/07/31 02:48:37;;;;;;;7.72;4.30;;;;;;;;;;5033587;28;20064;-66
2022/07/31 02:51:02;;;;;;;14.85;4.88;;;;;;;;;;5034092;28;20531;-67
2022/07/31 02:53:28;;;;;;;6.32;4.60;;;;;;;;;;5033703;28;20033;-68
2022/07/31 02:55:54;;;;;;;7.68;4.68;;;;;;;;;;5033987;28;20033;-67
2022/07/31 02:58:19;;;;;;;6.65;4.60;;;;;;;;;;5033258;28;20042;-67
2022/07/31 03:00:45;;;;;;;9.23;5.07;;;;;;;;;;5034103;28;20109;-67
2022/07/31 03:03:10;;;;;;;7.75;5.10;;;;;;;;;;5033497;28;20036;-67
2022/07/31 03:05:35;;;;;;;9.43;5.30;;;;;;;;;;5033385;28;20142;-67
2022/07/31 03:08:01;;;;;;;7.43;4.43;;;;;;;;;;5033603;28;20037;-67
2022/07/31 03:10:26;;;;;;;10.52;5.15;;;;;;;;;;5033828;28;20033;-67
2022/07/31 03:12:53;;;;;;;6.45;4.88;;;;;;;;;;5033146;28;20093;-67
2022/07/31 03:15:19;;;;;;;8.45;4.85;;;;;;;;;;5032302;28;20099;-67
2022/07/31 03:17:45;;;;;;;9.55;5.00;;;;;;;;;;5033253;28;20030;-67
2022/07/31 03:20:11;;;;;;;9.20;5.00;;;;;;;;;;5032908;28;20517;-67
2022/07/31 03:22:38;;;;;;;9.23;4.93;;;;;;;;;;5033410;28;20052;-67
2022/07/31 03:25:04;;;;;;;8.15;5.05;;;;;;;;;;5033113;28;20065;-67
2022/07/31 03:27:29;;;;;;;7.25;5.00;;;;;;;;;;5033143;28;20044;-66
2022/07/31 03:29:54;;;;;;;8.82;5.43;;;;;;;;;;5033156;28;20048;-67
2022/07/31 03:32:20;;;;;;;8.45;5.25;;;;;;;;;;5033524;28;20096;-67
2022/07/31 03:34:46;;;;;;;8.73;5.45;;;;;;;;;;5032605;28;20056;-67
2022/07/31 03:37:11;;;;;;;9.40;5.07;;;;;;;;;;5033048;28;20061;-67
2022/07/31 03:39:36;;;;;;;10.25;5.40;;;;;;;;;;5032946;28;20496;-67
2022/07/31 03:42:02;;;;;;;8.80;5.57;;;;;;;;;;5033278;28;20580;-67
2022/07/31 03:44:27;;;;;;;10.05;5.82;;;;;;;;;;5032451;28;20482;-67
2022/07/31 03:46:52;;;;;;;9.00;5.70;;;;;;;;;;5032743;28;20018;-66
2022/07/31 03:49:18;;;;;;;10.65;5.75;;;;;;;;;;5032658;28;20017;-67
2022/07/31 03:51:43;;;;;;;12.20;5.57;;;;;;;;;;5032763;28;20112;-67
2022/07/31 03:54:08;;;;;;;14.20;5.82;;;;;;;;;;5032672;28;20021;-67
2022/07/31 03:56:34;;;;;;;8.80;5.97;;;;;;;;;;5032660;28;20496;-67
2022/07/31 03:59:01;;;;;;;11.32;6.15;;;;;;;;;;5032474;28;20036;-67
2022/07/31 04:01:26;;;;;;;10.15;6.10;;;;;;;;;;5032855;28;20041;-67
2022/07/31 04:03:58;;;;;;;9.77;6.00;;;;;;;;;;5032494;28;20114;-67
2022/07/31 04:06:23;;;;;;;9.25;5.90;;;;;;;;;;5032226;28;20021;-67
2022/07/31 04:08:48;;;;;;;9.07;5.78;;;;;;;;;;5032142;28;20036;-67
2022/07/31 04:11:13;;;;;;;9.43;6.00;;;;;;;;;;5032499;28;20024;-67
2022/07/31 04:13:39;;;;;;;11.40;5.82;;;;;;;;;;5032265;28;20049;-67
2022/07/31 04:16:04;;;;;;;10.25;5.70;;;;;;;;;;5032312;28;20032;-67
2022/07/31 04:18:29;;;;;;;11.10;5.70;;;;;;;;;;5031926;28;20169;-66
2022/07/31 04:20:54;;;;;;;11.80;5.93;;;;;;;;;;5032293;28;20079;-67
2022/07/31 04:23:20;;;;;;;8.50;5.72;;;;;;;;;;5032180;28;20041;-66
2022/07/31 04:25:45;;;;;;;10.95;5.80;;;;;;;;;;5032007;28;20104;-66
2022/07/31 04:28:10;;;;;;;8.80;5.50;;;;;;;;;;5032167;28;20434;-67
2022/07/31 04:30:36;;;;;;;9.10;5.57;;;;;;;;;;5032376;28;20374;-67
2022/07/31 04:33:01;;;;;;;8.05;5.60;;;;;;;;;;5031949;28;20013;-67
2022/07/31 04:35:27;;;;;;;8.85;5.07;;;;;;;;;;5032141;28;20096;-67
2022/07/31 04:37:53;;;;;;;12.30;5.60;;;;;;;;;;5032294;28;20476;-67
2022/07/31 04:40:18;;;;;;;9.82;5.63;;;;;;;;;;5031886;28;20100;-67
2022/07/31 04:42:44;;;;;;;10.45;5.75;;;;;;;;;;5031658;28;20057;-67
2022/07/31 04:45:09;;;;;;;10.93;5.55;;;;;;;;;;5031672;28;20385;-67
2022/07/31 04:47:34;;;;;;;9.23;5.75;;;;;;;;;;5031955;28;20496;-67
2022/07/31 04:49:59;;;;;;;9.68;5.60;;;;;;;;;;5031405;28;20032;-67
2022/07/31 04:52:25;;;;;;;8.23;5.25;;;;;;;;;;5031571;28;20033;-67
2022/07/31 04:54:50;;;;;;;9.30;5.43;;;;;;;;;;5031572;28;20045;-67
2022/07/31 04:57:15;;;;;;;7.63;5.10;;;;;;;;;;5031883;28;20052;-67
2022/07/31 04:59:40;;;;;;;8.52;4.85;;;;;;;;;;5031477;28;20025;-67
2022/07/31 05:02:06;;;;;;;6.75;4.63;;;;;;;;;;5031550;28;20032;-67
2022/07/31 05:04:31;;;;;;;9.00;4.38;;;;;;;;;;5031144;28;20084;-67
2022/07/31 05:06:56;;;;;;;7.95;4.43;;;;;;;;;;5031296;28;20040;-67
2022/07/31 05:09:22;;;;;;;6.85;4.00;;;;;;;;;;5031745;28;20432;-67
2022/07/31 05:11:48;;;;;;;8.23;4.00;;;;;;;;;;5031516;28;20022;-67
2022/07/31 05:14:15;;;;;;;6.93;4.00;;;;;;;;;;5031417;28;20079;-67
2022/07/31 05:16:40;;;;;;;7.57;4.03;;;;;;;;;;5031676;28;20025;-67
2022/07/31 05:19:06;;;;;;;9.45;3.80;;;;;;;;;;5031311;28;20022;-67
2022/07/31 05:21:31;;;;;;;9.82;3.78;;;;;;;;;;5031599;28;20029;-67
2022/07/31 05:23:57;;;;;;;7.10;4.03;;;;;;;;;;5031225;28;20052;-67
2022/07/31 05:26:23;;;;;;;6.22;3.40;;;;;;;;;;5031247;28;20493;-67
2022/07/31 05:28:49;;;;;;;8.68;3.53;;;;;;;;;;5031330;28;20021;-68
2022/07/31 05:31:15;;;;;;;5.22;3.50;;;;;;;;;;5031321;28;20092;-68
2022/07/31 05:33:40;;;;;;;6.18;3.30;;;;;;;;;;5031175;28;20109;-67
2022/07/31 05:36:06;;;;;;;7.65;3.53;;;;;;;;;;5031345;28;20029;-67
2022/07/31 05:38:31;;;;;;;8.60;3.33;;;;;;;;;;5034753;28;20112;-67
2022/07/31 05:40:56;;;;;;;7.07;3.05;;;;;;;;;;5035449;28;20018;-67
2022/07/31 05:43:22;;;;;;;5.50;3.10;;;;;;;;;;5034994;28;20025;-67
2022/07/31 05:45:47;;;;;;;5.50;3.10;;;;;;;;;;5035087;28;20500;-67
2022/07/31 05:48:13;;;;;;;6.25;3.30;;;;;;;;;;5035131;28;20049;-67
2022/07/31 05:50:42;;;;;;;8.65;3.15;;;;;;;;;;5034895;28;20432;-67
2022/07/31 05:53:07;;;;;;;7.80;3.35;;;;;;;;;;5034732;28;20107;-67
2022/07/31 05:55:32;;;;;;;7.57;3.20;;;;;;;;;;5034904;28;20029;-68
2022/07/31 05:57:57;;;;;;;6.30;3.17;;;;;;;;;;5034821;28;20021;-67
2022/07/31 06:00:23;;;;;;;8.10;3.00;;;;;;;;;;5034733;28;20076;-67
2022/07/31 06:02:48;;;;;;;6.22;3.30;;;;;;;;;;5035112;28;20071;-68
2022/07/31 06:05:13;;;;;;;5.45;2.50;;;;;;;;;;5034646;28;20104;-68
2022/07/31 06:07:39;;;;;;;7.45;2.63;;;;;;;;;;5034710;28;20025;-67
2022/07/31 06:10:04;;;;;;;4.88;2.50;;;;;;;;;;5034119;28;20041;-68
2022/07/31 06:12:29;;;;;;;4.53;2.30;;;;;;;;;;5034601;28;20503;-68
2022/07/31 06:14:55;;;;;;;6.03;2.42;;;;;;;;;;5034589;28;20029;-67
2022/07/31 06:17:20;;;;;;;5.45;2.53;;;;;;;;;;5034942;28;20116;-68
2022/07/31 06:19:45;;;;;;;3.70;2.30;;;;;;;;;;5034296;28;20610;-67
2022/07/31 06:22:10;;;;;;;5.70;2.60;;;;;;;;;;5034755;28;20029;-68
2022/07/31 06:24:36;;;;;;;5.20;2.45;;;;;;;;;;5034000;28;20032;-68
2022/07/31 06:27:02;;;;;;;8.27;2.88;;;;;;;;;;5034601;28;20032;-67
2022/07/31 06:29:27;;;;;;;7.30;3.03;;;;;;;;;;5034086;28;20017;-67
2022/07/31 06:31:53;;;;;;;6.35;2.70;;;;;;;;;;5034589;28;20021;-67
2022/07/31 06:34:18;;;;;;;5.63;2.60;;;;;;;;;;5033784;28;20024;-67
2022/07/31 06:36:43;;;;;;;6.00;2.90;;;;;;;;;;5034329;28;20484;-68
2022/07/31 06:39:09;;;;;;;6.15;2.75;;;;;;;;;;5034069;28;20478;-67
2022/07/31 06:41:43;;;;;;;7.72;2.75;;;;;;;;;;5034447;28;20025;-67
2022/07/31 06:44:12;;;;;;;6.00;2.80;;;;;;;;;;5034083;28;20036;-68
2022/07/31 06:46:38;;;;;;;10.75;3.85;;;;;;;;;;5034037;28;20025;-67
2022/07/31 06:49:03;;;;;;;5.93;3.05;;;;;;;;;;5032466;28;20021;-67
2022/07/31 06:51:29;;;;;;;5.63;3.05;;;;;;;;;;5034209;28;20038;-68
2022/07/31 06:53:54;;;;;;;7.97;2.85;;;;;;;;;;5034004;28;20104;-68
2022/07/31 06:56:22;;;;;;;11.13;3.28;;;;;;;;;;5034043;28;20485;-67
2022/07/31 06:58:47;;;;;;;7.65;2.78;;;;;;;;;;5033852;28;20080;-67
2022/07/31 07:01:12;;;;;;;8.77;3.15;;;;;;;;;;5033445;28;20029;-68
2022/07/31 07:03:38;;;;;;;30.15;3.85;;;;;;;;;;5033672;28;20022;-67
2022/07/31 07:06:03;;;;;;;8.15;2.88;;;;;;;;;;5033941;28;20104;-67
2022/07/31 07:08:28;;;;;;;5.85;2.63;;;;;;;;;;5033641;28;20024;-67
2022/07/31 07:10:54;;;;;;;6.57;2.80;;;;;;;;;;5033857;28;20071;-67
2022/07/31 07:13:19;;;;;;;7.05;2.92;;;;;;;;;;5033290;28;20037;-67
2022/07/31 07:15:44;;;;;;;7.75;2.97;;;;;;;;;;5033808;28;20029;-67
2022/07/31 07:18:10;;;;;;;8.75;2.80;;;;;;;;;;5033177;28;20603;-67
2022/07/31 07:20:35;;;;;;;7.03;2.92;;;;;;;;;;5033404;28;20064;-67
2022/07/31 07:23:01;;;;;;;6.40;2.63;;;;;;;;;;5032958;28;20049;-67
2022/07/31 07:25:26;;;;;;;6.80;2.65;;;;;;;;;;5033241;28;20021;-68
2022/07/31 07:27:52;;;;;;;9.32;3.00;;;;;;;;;;5033046;28;20024;-67
2022/07/31 07:30:18;;;;;;;4.50;2.28;;;;;;;;;;5032941;28;20082;-67
2022/07/31 07:32:43;;;;;;;5.88;2.50;;;;;;;;;;5033148;28;20032;-67
2022/07/31 07:35:11;;;;;;;7.60;2.63;;;;;;;;;;5032893;28;20021;-67
2022/07/31 07:37:37;;;;;;;10.57;2.70;;;;;;;;;;5033060;28;20080;-67
2022/07/31 07:40:03;;;;;;;5.80;2.38;;;;;;;;;;5033070;28;20036;-67
2022/07/31 07:42:28;;;;;;;9.15;2.40;;;;;;;;;;5033285;28;20026;-67
2022/07/31 07:44:53;;;;;;;6.47;2.85;;;;;;;;;;5032461;28;20026;-67
2022/07/31 07:47:19;;;;;;;5.18;2.60;;;;;;;;;;5032840;28;20027;-67
2022/07/31 07:49:44;;;;;;;7.95;2.90;;;;;;;;;;5032650;28;20025;-67
2022/07/31 07:52:09;;;;;;;9.95;3.13;;;;;;;;;;5032784;28;20124;-67
2022/07/31 07:54:34;;;;;;;6.43;2.75;;;;;;;;;;5032657;28;20090;-67
2022/07/31 07:57:00;;;;;;;10.13;3.05;;;;;;;;;;5032929;28;20025;-67
2022/07/31 07:59:25;;;;;;;7.15;2.78;;;;;;;;;;5031839;28;20028;-67
2022/07/31 08:01:50;;;;;;;6.47;2.95;;;;;;;;;;5032584;28;20497;-67
2022/07/31 08:04:15;;;;;;;6.35;2.78;;;;;;;;;;5032636;28;20060;-67
2022/07/31 08:06:41;;;;;;;6.97;2.90;;;;;;;;;;5032721;28;20390;-67
2022/07/31 08:09:06;;;;;;;6.45;2.90;;;;;;;;;;5032144;28;20018;-66
2022/07/31 08:11:32;;;;;;;7.30;3.00;;;;;;;;;;5032293;28;20070;-67
2022/07/31 08:13:57;;;;;;;5.30;2.65;;;;;;;;;;5032202;28;20021;-67
2022/07/31 08:16:22;;;;;;;6.45;2.90;;;;;;;;;;5032265;28;20040;-67
2022/07/31 08:18:48;;;;;;;7.40;2.70;;;;;;;;;;5031916;28;20025;-67
2022/07/31 08:21:14;;;;;;;5.57;2.60;;;;;;;;;;5032525;28;20064;-67
2022/07/31 08:23:39;;;;;;;6.97;2.97;;;;;;;;;;5032196;28;20040;-66
2022/07/31 08:26:07;;;;;;;7.57;2.63;;;;;;;;;;5032089;28;20151;-67
2022/07/31 08:28:32;;;;;;;6.15;2.60;;;;;;;;;;5031735;28;20025;-67
2022/07/31 08:30:57;;;;;;;6.93;2.97;;;;;;;;;;5032076;28;20022;-67
2022/07/31 08:33:22;;;;;;;11.18;3.78;;;;;;;;;;5031439;28;20029;-67
2022/07/31 08:35:48;;;;;;;5.07;2.95;;;;;;;;;;5022892;28;20046;-66
2022/07/31 08:38:14;;;;;;;6.82;3.05;;;;;;;;;;5014418;28;20053;-66
2022/07/31 08:40:40;;;;;;;7.50;3.70;;;;;;;;;;5031863;28;20474;-67
2022/07/31 08:43:05;;;;;;;9.38;3.33;;;;;;;;;;5031764;28;20056;-67
2022/07/31 08:45:30;;;;;;;6.80;3.20;;;;;;;;;;5031694;28;20028;-67
2022/07/31 08:47:57;;;;;;;12.65;3.53;;;;;;;;;;5031699;28;20021;-67
2022/07/31 08:50:23;;;;;;;9.52;3.40;;;;;;;;;;5031736;28;20429;-66
2022/07/31 08:52:49;;;;;;;8.75;3.22;;;;;;;;;;5031494;28;20091;-67
2022/07/31 08:55:14;;;;;;;8.40;3.55;;;;;;;;;;5031154;28;20049;-66
2022/07/31 08:57:40;;;;;;;7.18;3.28;;;;;;;;;;5031487;28;20040;-66
2022/07/31 09:00:06;;;;;;;9.48;3.00;;;;;;;;;;5031297;28;20387;-67
2022/07/31 09:02:31;;;;;;;8.00;2.85;;;;;;;;;;5031420;28;20025;-66
2022/07/31 09:04:57;;;;;;;7.20;2.80;;;;;;;;;;5031533;28;20029;-67
2022/07/31 09:07:22;;;;;;;8.27;2.92;;;;;;;;;;5031691;28;20025;-68
2022/07/31 09:09:47;;;;;;;5.78;2.55;;;;;;;;;;5031174;28;20013;-67
2022/07/31 09:12:13;;;;;;;5.28;2.50;;;;;;;;;;5030994;28;20484;-67
2022/07/31 09:14:38;;;;;;;6.70;2.53;;;;;;;;;;5030975;28;20017;-67
2022/07/31 09:17:06;;;;;;;6.68;2.40;;;;;;;;;;5031649;28;20025;-67
2022/07/31 09:19:36;;;;;;;4.43;2.20;;;;;;;;;;5031288;28;20385;-67
2022/07/31 09:22:01;;;;;;;6.53;2.42;;;;;;;;;;5031230;28;20108;-67
2022/07/31 09:24:28;;;;;;;10.95;2.50;;;;;;;;;;5030798;28;20053;-67
2022/07/31 09:27:02;;;;;;;5.63;2.28;;;;;;;;;;5031227;28;20069;-67
2022/07/31 09:29:34;;;;;;;5.22;2.20;;;;;;;;;;5031088;28;20096;-67
2022/07/31 09:32:12;;;;;;;6.97;2.17;;;;;;;;;;5031535;28;20021;-67
2022/07/31 09:34:38;;;;;;;6.35;2.00;;;;;;;;;;5030876;28;20447;-67
2022/07/31 09:37:14;;;;;;;6.55;2.00;;;;;;;;;;5031341;28;20382;-67
2022/07/31 09:39:39;;;;;;;4.57;1.77;;;;;;;;;;5031042;28;20462;-67
2022/07/31 09:42:05;;;;;;;4.53;1.85;;;;;;;;;;5031427;28;20018;-67
2022/07/31 09:44:34;;;;;;;4.35;1.70;;;;;;;;;;5031160;28;20389;-67
2022/07/31 09:46:59;;;;;;;7.78;2.00;;;;;;;;;;5031164;28;20035;-67
2022/07/31 09:49:33;;;;;;;4.25;1.60;;;;;;;;;;5030632;28;20100;-67
2022/07/31 09:51:59;;;;;;;3.70;1.60;;;;;;;;;;5030945;28;20028;-67
2022/07/31 09:54:28;;;;;;;6.13;1.70;;;;;;;;;;5031054;28;20025;-67
2022/07/31 09:56:54;;;;;;;5.85;2.05;;;;;;;;;;5031158;28;20534;-67
2022/07/31 09:59:19;;;;;;;5.00;1.60;;;;;;;;;;5030910;28;20104;-67
2022/07/31 10:01:47;;;;;;;5.30;1.70;;;;;;;;;;5031180;28;20021;-67
2022/07/31 10:04:12;;;;;;;6.55;1.70;;;;;;;;;;5030559;28;20030;-67
2022/07/31 10:06:38;;;;;;;5.97;1.63;;;;;;;;;;5030366;28;20681;-67
2022/07/31 10:09:05;;;;;;;6.72;1.70;;;;;;;;;;5030557;28;20037;-67
2022/07/31 10:11:31;;;;;;;5.50;1.60;;;;;;;;;;5030929;28;20030;-67
2022/07/31 10:13:59;;;;;;;5.15;1.70;;;;;;;;;;5030829;28;20431;-67
2022/07/31 10:16:26;;;;;;;5.15;1.63;;;;;;;;;;5030909;28;20022;-67
2022/07/31 10:18:55;;;;;;;3.65;1.80;;;;;;;;;;5030561;28;20041;-67
2022/07/31 10:21:23;;;;;;;5.75;1.90;;;;;;;;;;5031187;28;20053;-67
2022/07/31 10:23:49;;;;;;;3.83;1.70;;;;;;;;;;5032958;28;20518;-68
2022/07/31 10:26:14;;;;;;;5.35;2.00;;;;;;;;;;5034412;28;20152;-68
2022/07/31 10:28:40;;;;;;;4.20;1.67;;;;;;;;;;5034073;28;20120;-68
2022/07/31 10:31:06;;;;;;;5.45;2.25;;;;;;;;;;5034375;28;20046;-68
2022/07/31 10:33:32;;;;;;;8.25;1.95;;;;;;;;;;5033944;28;20029;-68
2022/07/31 10:36:18;;;;;;;5.30;2.30;;;;;;;;;;5034525;28;20028;-68
2022/07/31 10:39:02;;;;;;;4.30;2.03;;;;;;;;;;5034062;28;20053;-68
2022/07/31 10:41:36;;;;;;;5.97;2.42;;;;;;;;;;5034379;28;20044;-68
2022/07/31 10:44:09;;;;;;;6.05;2.50;;;;;;;;;;5033259;28;20057;-68
2022/07/31 10:46:34;;;;;;;6.82;2.67;;;;;;;;;;5034164;28;20373;-68
2022/07/31 10:48:59;;;;;;;7.63;2.65;;;;;;;;;;5033467;28;20018;-67
2022/07/31 10:51:25;;;;;;;6.60;3.45;;;;;;;;;;5034200;28;20033;-68
2022/07/31 10:53:53;;;;;;;6.20;3.35;;;;;;;;;;5033833;28;20033;-68
2022/07/31 10:56:19;;;;;;;8.52;3.72;;;;;;;;;;5033831;28;20021;-68
2022/07/31 10:58:48;;;;;;;7.82;3.72;;;;;;;;;;5033913;28;20029;-67
2022/07/31 11:01:13;;;;;;;9.15;4.55;;;;;;;;;;5033878;28;20025;-67
2022/07/31 11:03:40;;;;;;;8.27;4.60;;;;;;;;;;5033687;28;20036;-68
2022/07/31 11:06:05;;;;;;;10.57;5.03;;;;;;;;;;5033717;28;20045;-67
2022/07/31 11:08:41;;;;;;;12.35;5.05;;;;;;;;;;5033661;28;20059;-67
2022/07/31 11:11:06;;;;;;;11.38;5.63;;;;;;;;;;5033854;28;20626;-67
2022/07/31 11:13:32;;;;;;;8.40;6.00;;;;;;;;;;5033575;28;20021;-67
2022/07/31 11:16:04;;;;;;;9.48;6.47;;;;;;;;;;5033911;28;20021;-68
2022/07/31 11:18:30;;;;;;;11.00;5.90;;;;;;;;;;5033354;28;20034;-67
2022/07/31 11:20:59;;;;;;;11.68;6.95;;;;;;;;;;5033477;28;20022;-67
2022/07/31 11:23:28;;;;;;;9.55;6.22;;;;;;;;;;5033345;28;20075;-68
2022/07/31 11:25:57;;;;;;;8.45;5.55;;;;;;;;;;5033529;28;20102;-67
2022/07/31 11:28:26;;;;;;;9.20;5.50;;;;;;;;;;5032886;28;20029;-67
2022/07/31 11:30:54;;;;;;;8.50;4.82;;;;;;;;;;5033331;28;20445;-67
2022/07/31 11:33:32;;;;;;;9.68;4.50;;;;;;;;;;5033218;28;20388;-67
2022/07/31 11:36:08;;;;;;;10.70;4.55;;;;;;;;;;5032029;28;20071;-67
2022/07/31 11:38:34;;;;;;;7.35;4.57;;;;;;;;;;5032995;28;20025;-67
2022/07/31 11:40:59;;;;;;;8.05;4.70;;;;;;;;;;5032995;28;20026;-67
2022/07/31 11:43:25;;;;;;;9.23;4.85;;;;;;;;;;5033009;28;20083;-67
2022/07/31 11:45:51;;;;;;;10.27;5.22;;;;;;;;;;5033189;28;20544;-67
2022/07/31 11:48:17;;;;;;;8.13;4.88;;;;;;;;;;5032936;28;20569;-67
2022/07/31 11:50:43;;;;;;;7.68;4.60;;;;;;;;;;5033028;28;20081;-68
2022/07/31 11:53:09;;;;;;;8.90;4.05;;;;;;;;;;5032568;28;20112;-68
2022/07/31 11:55:48;;;;;;;7.28;4.05;;;;;;;;;;5032310;28;20122;-67
2022/07/31 11:58:14;;;;;;;9.43;4.60;;;;;;;;;;5032716;28;20438;-67
2022/07/31 12:00:44;;;;;;;7.78;4.50;;;;;;;;;;5032629;28;20026;-67
2022/07/31 12:03:10;;;;;;;9.55;4.82;;;;;;;;;;5032380;28;20025;-67
2022/07/31 12:05:42;;;;;;;7.10;4.07;;;;;;;;;;5032844;28;20040;-68
2022/07/31 12:08:09;;;;;;;8.98;4.25;;;;;;;;;;5032127;28;20049;-68
2022/07/31 12:10:35;;;;;;;7.50;3.90;;;;;;;;;;5032488;28;20021;-67
2022/07/31 12:13:01;;;;;;;7.95;4.57;;;;;;;;;;5032237;28;20044;-67
2022/07/31 12:15:26;;;;;;;7.25;4.22;;;;;;;;;;5032317;28;20033;-68
2022/07/31 12:17:59;;;;;;;5.63;3.53;;;;;;;;;;5032208;28;20040;-67
2022/07/31 12:20:24;;;;;;;7.93;4.10;;;;;;;;;;5032448;28;20029;-67
2022/07/31 12:22:59;;;;;;;9.90;4.35;;;;;;;;;;5032397;28;20021;-67
2022/07/31 12:25:25;;;;;;;7.13;4.18;;;;;;;;;;5032346;28;20600;-67
2022/07/31 12:27:54;;;;;;;10.18;4.47;;;;;;;;;;5032173;28;20030;-67
2022/07/31 12:30:21;;;;;;;9.98;4.18;;;;;;;;;;5031899;28;20068;-67
2022/07/31 12:32:46;;;;;;;8.77;4.80;;;;;;;;;;5032292;28;20047;-67
2022/07/31 12:35:12;;;;;;;7.93;4.32;;;;;;;;;;5032068;28;20025;-67
2022/07/31 12:37:44;;;;;;;9.38;4.65;;;;;;;;;;5032082;28;20148;-67
2022/07/31 12:40:19;;;;;;;8.32;4.35;;;;;;;;;;5032124;28;20092;-67
2022/07/31 12:42:45;;;;;;;9.85;4.35;;;;;;;;;;5031681;28;20025;-67
2022/07/31 12:45:10;;;;;;;8.63;4.70;;;;;;;;;;5031802;28;20116;-67
2022/07/31 12:47:35;;;;;;;9.02;5.43;;;;;;;;;;5031948;28;20021;-67
2022/07/31 12:50:00;;;;;;;11.23;5.25;;;;;;;;;;5031587;28;20357;-67
2022/07/31 12:52:27;;;;;;;8.52;5.00;;;;;;;;;;5031768;28;20537;-67
2022/07/31 12:54:52;;;;;;;9.57;4.80;;;;;;;;;;5030630;28;20037;-67
2022/07/31 12:57:18;;;;;;;10.63;5.22;;;;;;;;;;5032065;28;20097;-67
2022/07/31 12:59:43;;;;;;;9.52;5.32;;;;;;;;;;5031578;28;20482;-67
2022/07/31 13:02:08;;;;;;;8.57;4.88;;;;;;;;;;5031565;28;20075;-66
2022/07/31 13:04:34;;;;;;;9.90;5.20;;;;;;;;;;5031428;28;20021;-66
2022/07/31 13:06:59;;;;;;;8.18;4.47;;;;;;;;;;5031707;28;20048;-67
2022/07/31 13:09:24;;;;;;;10.95;5.13;;;;;;;;;;5031530;28;20054;-67
2022/07/31 13:11:50;;;;;;;9.57;5.25;;;;;;;;;;5031782;28;20028;-66
2022/07/31 13:14:15;;;;;;;8.82;5.28;;;;;;;;;;5031255;28;20083;-67
2022/07/31 13:16:41;;;;;;;9.90;4.85;;;;;;;;;;5031631;28;20107;-67
2022/07/31 13:19:06;;;;;;;9.93;5.20;;;;;;;;;;5031525;28;20022;-67
2022/07/31 13:21:32;;;;;;;10.85;4.60;;;;;;;;;;5031533;28;20381;-67
2022/07/31 13:23:57;;;;;;;10.15;5.72;;;;;;;;;;5031119;28;20034;-67
2022/07/31 13:26:22;;;;;;;8.00;5.20;;;;;;;;;;5031243;28;20361;-67
2022/07/31 13:28:48;;;;;;;11.50;5.47;;;;;;;;;;5030905;28;20021;-68
2022/07/31 13:31:13;;;;;;;10.77;5.85;;;;;;;;;;5031680;28;20136;-67
2022/07/31 13:33:38;;;;;;;10.45;5.78;;;;;;;;;;5030800;28;20492;-66
2022/07/31 13:36:04;;;;;;;11.30;5.60;;;;;;;;;;5031397;28;20019;-66
2022/07/31 13:38:30;;;;;;;11.82;5.50;;;;;;;;;;5031128;28;20029;-67
2022/07/31 13:43:39;;;;;;;10.82;6.50;;;;;;;;;;5030822;28;20076;-67
2022/07/31 13:46:04;;;;;;;11.43;6.30;;;;;;;;;;5030953;28;20045;-67
2022/07/31 13:48:29;;;;;;;11.35;6.45;;;;;;;;;;5030998;28;20043;-66
2022/07/31 13:50:55;;;;;;;10.48;6.10;;;;;;;;;;5031229;28;20033;-66
2022/07/31 13:53:20;;;;;;;12.38;5.82;;;;;;;;;;5031078;28;20034;-67
2022/07/31 13:55:45;;;;;;;8.63;5.63;;;;;;;;;;5031005;28;20075;-66
2022/07/31 13:58:10;;;;;;;9.02;5.88;;;;;;;;;;5032293;28;20033;-67
2022/07/31 14:00:36;;;;;;;9.85;5.53;;;;;;;;;;5035027;28;20056;-68
2022/07/31 14:03:01;;;;;;;12.20;5.95;;;;;;;;;;5033023;28;20022;-68
2022/07/31 14:05:26;;;;;;;11.45;6.00;;;;;;;;;;5034676;28;20558;-67
2022/07/31 14:07:52;;;;;;;10.77;5.90;;;;;;;;;;5034971;28;20022;-68
2022/07/31 14:10:17;;;;;;;9.63;5.70;;;;;;;;;;5034852;28;20100;-67
2022/07/31 14:12:42;;;;;;;9.68;5.20;;;;;;;;;;5035214;28;20049;-67
2022/07/31 14:15:08;;;;;;;8.15;5.15;;;;;;;;;;5034303;28;20076;-67
2022/07/31 14:17:33;;;;;;;8.85;5.10;;;;;;;;;;5034815;28;20025;-67
2022/07/31 14:19:58;;;;;;;8.40;5.43;;;;;;;;;;5034493;28;20030;-68
2022/07/31 14:22:24;;;;;;;8.88;5.95;;;;;;;;;;5034362;28;20057;-68
2022/07/31 14:24:49;;;;;;;9.07;6.35;;;;;;;;;;5034034;28;20128;-68
2022/07/31 14:27:14;;;;;;;11.85;7.00;;;;;;;;;;5034785;28;20026;-67
2022/07/31 14:29:40;;;;;;;11.43;7.07;;;;;;;;;;5034372;28;20449;-68
2022/07/31 14:32:05;;;;;;;11.07;7.53;;;;;;;;;;5034698;28;20664;-68
2022/07/31 14:34:30;;;;;;;11.27;7.80;;;;;;;;;;5034340;28;20438;-67
2022/07/31 14:36:55;;;;;;;10.48;7.45;;;;;;;;;;5033795;28;20470;-68